Zero, Nebraska
Current Conditions -  °F | °C
As of 9:53 PM on Saturday 22 Nov 2014 (Local Time) from KHSI Reporting Station
Haze Haze  
Wind Chill: 53°   Ceiling: 400
Heat Index: 53°   Visibility: 4mi
Dew Point: 50°   Wind: 10mph
Humidity: 89%   Direction: 200°SSW
Pressure: 29.54"   Gusts: 21mph
Location:  40.4373°N, 98.4396°W
Report Text: KHSI 230353Z AUTO 20009G18KT 4SM BR OVC004 12/10 A2954 RMK AO2 SLP009 T01170100
Loading
Personal Weather Stations






























Interactive Weather Map New forecast layout! Learn more

10-Day Weather Forecast

Advertisements
Track Severe Weather on mobile